RYR147 LOWW-EBBR
Flight info
| Callsign | RYR147 |
|---|---|
| Flight time | 1h 31m |
| Altitude | 36000 |
| Route | BUWUT DCT DITIS DCT OKG DCT LONLI DCT MARZA DCT TEKTU DCT TESGA DCT UMUPU T880 ADMUM/N0363F240 T880 BATTY |
| Aircraft | B738/M-SDE2E3FGHIRWXY/LB1 |
Departure
| Time | 2026-04-25 23:05 |
|---|---|
| Airport | Vienna International Airport (LOWW) |
Arrival
| Time | 2026-04-26 00:36 |
|---|---|
| Airport | Brussels Airport (EBBR) |
| Time | Latitude | Longitude | Altitude | Speed | Heading |
|---|---|---|---|---|---|
| 2026-04-25 22:28 | 48.11630 | 16.57042 | 606 ft | 0 kts | 26° |
| 2026-04-25 22:55 | 48.11631 | 16.57042 | 606 ft | 0 kts | 26° |
| 2026-04-25 22:55 | 48.11643 | 16.57052 | 606 ft | 3 kts | 30° |
| 2026-04-25 22:55 | 48.11654 | 16.57071 | 606 ft | 6 kts | 56° |
| 2026-04-25 22:56 | 48.11655 | 16.57075 | 606 ft | 0 kts | 57° |
| 2026-04-25 22:56 | 48.11659 | 16.57083 | 606 ft | 5 kts | 58° |
| 2026-04-25 22:56 | 48.11666 | 16.57148 | 606 ft | 10 kts | 102° |
| 2026-04-25 22:56 | 48.11609 | 16.57352 | 602 ft | 28 kts | 125° |
| 2026-04-25 22:57 | 48.11479 | 16.57454 | 600 ft | 21 kts | 187° |
| 2026-04-25 22:57 | 48.11324 | 16.57342 | 602 ft | 31 kts | 208° |
| 2026-04-25 22:57 | 48.11283 | 16.57311 | 603 ft | 0 kts | 207° |
| 2026-04-25 22:57 | 48.11283 | 16.57310 | 603 ft | 1 kts | 207° |
| 2026-04-25 22:58 | 48.11241 | 16.57292 | 603 ft | 4 kts | 151° |
| 2026-04-25 22:58 | 48.11169 | 16.57404 | 601 ft | 22 kts | 122° |
| 2026-04-25 22:58 | 48.11147 | 16.57455 | 600 ft | 9 kts | 128° |
| 2026-04-25 22:58 | 48.11098 | 16.57510 | 599 ft | 1 kts | 171° |
| 2026-04-25 22:59 | 48.11073 | 16.57513 | 599 ft | 0 kts | 180° |
| 2026-04-25 22:59 | 48.11073 | 16.57512 | 599 ft | 0 kts | 190° |
| 2026-04-25 23:00 | 48.11069 | 16.57520 | 599 ft | 0 kts | 201° |
| 2026-04-25 23:03 | 48.11067 | 16.57518 | 599 ft | 4 kts | 203° |
| 2026-04-25 23:03 | 48.11066 | 16.57518 | 599 ft | 0 kts | 203° |
| 2026-04-25 23:03 | 48.11065 | 16.57517 | 599 ft | 2 kts | 203° |
| 2026-04-25 23:03 | 48.11000 | 16.57459 | 600 ft | 16 kts | 228° |
| 2026-04-25 23:04 | 48.10975 | 16.57390 | 602 ft | 0 kts | 276° |
| 2026-04-25 23:04 | 48.10979 | 16.57344 | 603 ft | 12 kts | 284° |
| 2026-04-25 23:04 | 48.11043 | 16.57129 | 605 ft | 61 kts | 297° |
| 2026-04-25 23:04 | 48.11366 | 16.56138 | 589 ft | 148 kts | 296° |
| 2026-04-25 23:05 | 48.11892 | 16.54542 | 1074 ft | 184 kts | 295° |
| 2026-04-25 23:05 | 48.12283 | 16.52835 | 2207 ft | 181 kts | 277° |
| 2026-04-25 23:05 | 48.11996 | 16.50966 | 2922 ft | 198 kts | 248° |
| 2026-04-25 23:05 | 48.11050 | 16.49375 | 3548 ft | 221 kts | 224° |
| 2026-04-25 23:06 | 48.09658 | 16.48278 | 4364 ft | 233 kts | 209° |
| 2026-04-25 23:06 | 48.08174 | 16.47341 | 5317 ft | 231 kts | 217° |
| 2026-04-25 23:06 | 48.07043 | 16.45820 | 6066 ft | 223 kts | 246° |
| 2026-04-25 23:06 | 48.06430 | 16.43664 | 6745 ft | 230 kts | 257° |
| 2026-04-25 23:07 | 48.05901 | 16.41353 | 7366 ft | 244 kts | 260° |
| 2026-04-25 23:07 | 48.05827 | 16.38819 | 8008 ft | 250 kts | 287° |
| 2026-04-25 23:07 | 48.06416 | 16.36429 | 8890 ft | 252 kts | 294° |
| 2026-04-25 23:07 | 48.07035 | 16.33968 | 9802 ft | 255 kts | 289° |
| 2026-04-25 23:08 | 48.07523 | 16.31423 | 10532 ft | 264 kts | 286° |
| 2026-04-25 23:08 | 48.07959 | 16.28694 | 11079 ft | 279 kts | 284° |
| 2026-04-25 23:08 | 48.08400 | 16.25781 | 11599 ft | 294 kts | 284° |
| 2026-04-25 23:08 | 48.08863 | 16.22731 | 12071 ft | 311 kts | 285° |
| 2026-04-25 23:09 | 48.09350 | 16.19572 | 12802 ft | 318 kts | 285° |
| 2026-04-25 23:09 | 48.09849 | 16.16350 | 13501 ft | 325 kts | 285° |
| 2026-04-25 23:09 | 48.10357 | 16.13056 | 14319 ft | 328 kts | 285° |
| 2026-04-25 23:09 | 48.10867 | 16.09735 | 15068 ft | 333 kts | 285° |
| 2026-04-25 23:10 | 48.11388 | 16.06338 | 15898 ft | 336 kts | 284° |
| 2026-04-25 23:10 | 48.11907 | 16.02949 | 16602 ft | 341 kts | 285° |
| 2026-04-25 23:10 | 48.12547 | 15.99525 | 17306 ft | 344 kts | 291° |
| 2026-04-25 23:10 | 48.13546 | 15.96485 | 17926 ft | 348 kts | 304° |
| 2026-04-25 23:11 | 48.15234 | 15.93825 | 18640 ft | 352 kts | 321° |
| 2026-04-25 23:11 | 48.17289 | 15.91911 | 19394 ft | 355 kts | 331° |
| 2026-04-25 23:11 | 48.18813 | 15.90823 | 19814 ft | 359 kts | 334° |
| 2026-04-25 23:11 | 48.21130 | 15.89361 | 20505 ft | 362 kts | 336° |
| 2026-04-25 23:12 | 48.23437 | 15.87994 | 21146 ft | 365 kts | 336° |
| 2026-04-25 23:12 | 48.25826 | 15.86596 | 21762 ft | 369 kts | 336° |
| 2026-04-25 23:12 | 48.28203 | 15.85200 | 22366 ft | 372 kts | 336° |
| 2026-04-25 23:12 | 48.30634 | 15.83758 | 22970 ft | 375 kts | 336° |
| 2026-04-25 23:13 | 48.33034 | 15.82321 | 23518 ft | 378 kts | 336° |
| 2026-04-25 23:13 | 48.35468 | 15.80856 | 24137 ft | 380 kts | 336° |
| 2026-04-25 23:13 | 48.37944 | 15.79361 | 24706 ft | 382 kts | 336° |
| 2026-04-25 23:13 | 48.40413 | 15.77866 | 25256 ft | 385 kts | 336° |
| 2026-04-25 23:14 | 48.42874 | 15.76373 | 25796 ft | 387 kts | 336° |
| 2026-04-25 23:14 | 48.45368 | 15.74856 | 26287 ft | 390 kts | 336° |
| 2026-04-25 23:14 | 48.47885 | 15.73323 | 26828 ft | 392 kts | 336° |
| 2026-04-25 23:14 | 48.50436 | 15.71768 | 27325 ft | 394 kts | 336° |
| 2026-04-25 23:15 | 48.52943 | 15.70238 | 27784 ft | 397 kts | 336° |
| 2026-04-25 23:15 | 48.55533 | 15.68655 | 28264 ft | 399 kts | 336° |
| 2026-04-25 23:15 | 48.58087 | 15.67093 | 28743 ft | 401 kts | 336° |
| 2026-04-25 23:15 | 48.60655 | 15.65521 | 29284 ft | 400 kts | 336° |
| 2026-04-25 23:16 | 48.63227 | 15.63931 | 29993 ft | 396 kts | 335° |
| 2026-04-25 23:16 | 48.65702 | 15.62123 | 30532 ft | 394 kts | 330° |
| 2026-04-25 23:16 | 48.67982 | 15.59933 | 31089 ft | 391 kts | 324° |
| 2026-04-25 23:16 | 48.70054 | 15.57346 | 31575 ft | 390 kts | 317° |
| 2026-04-25 23:17 | 48.71967 | 15.54246 | 32092 ft | 390 kts | 310° |
| 2026-04-25 23:17 | 48.73566 | 15.50872 | 32587 ft | 389 kts | 304° |
| 2026-04-25 23:17 | 48.74936 | 15.47352 | 33007 ft | 390 kts | 302° |
| 2026-04-25 23:17 | 48.76214 | 15.43758 | 33480 ft | 388 kts | 300° |
| 2026-04-25 23:18 | 48.77459 | 15.40163 | 33876 ft | 388 kts | 301° |
| 2026-04-25 23:18 | 48.78731 | 15.36510 | 34036 ft | 392 kts | 300° |
| 2026-04-25 23:18 | 48.81406 | 15.29292 | 34044 ft | 389 kts | 304° |
| 2026-04-25 23:19 | 48.84472 | 15.22630 | 34038 ft | 385 kts | 307° |
| 2026-04-25 23:19 | 48.87599 | 15.16171 | 34032 ft | 387 kts | 308° |
| 2026-04-25 23:20 | 48.90679 | 15.09725 | 34029 ft | 386 kts | 307° |
| 2026-04-25 23:20 | 48.93756 | 15.02993 | 34031 ft | 387 kts | 306° |
| 2026-04-25 23:21 | 48.96811 | 14.96188 | 34033 ft | 388 kts | 306° |
| 2026-04-25 23:21 | 48.99847 | 14.89414 | 34039 ft | 389 kts | 306° |
| 2026-04-25 23:22 | 49.02888 | 14.82624 | 34046 ft | 388 kts | 306° |
| 2026-04-25 23:23 | 49.07425 | 14.72469 | 34049 ft | 386 kts | 307° |
| 2026-04-25 23:23 | 49.10439 | 14.65707 | 34052 ft | 388 kts | 307° |
| 2026-04-25 23:24 | 49.13467 | 14.58898 | 34048 ft | 387 kts | 307° |
| 2026-04-25 23:24 | 49.16481 | 14.52102 | 34054 ft | 387 kts | 307° |
| 2026-04-25 23:25 | 49.19500 | 14.45277 | 34058 ft | 386 kts | 307° |
| 2026-04-25 23:25 | 49.22506 | 14.38465 | 34060 ft | 386 kts | 307° |
| 2026-04-25 23:26 | 49.25515 | 14.31630 | 34064 ft | 386 kts | 306° |
| 2026-04-25 23:26 | 49.28501 | 14.24828 | 34064 ft | 385 kts | 306° |
| 2026-04-25 23:27 | 49.31468 | 14.18046 | 34069 ft | 386 kts | 306° |
| 2026-04-25 23:27 | 49.34457 | 14.11195 | 34076 ft | 386 kts | 306° |
| 2026-04-25 23:28 | 49.37429 | 14.04368 | 34070 ft | 384 kts | 306° |
| 2026-04-25 23:28 | 49.40408 | 13.97511 | 34074 ft | 386 kts | 307° |
| 2026-04-25 23:29 | 49.43389 | 13.90642 | 34074 ft | 386 kts | 307° |
| 2026-04-25 23:29 | 49.46329 | 13.83845 | 34076 ft | 385 kts | 306° |
| 2026-04-25 23:30 | 49.49287 | 13.76980 | 34070 ft | 384 kts | 306° |
| 2026-04-25 23:30 | 49.52230 | 13.70136 | 34080 ft | 385 kts | 306° |
| 2026-04-25 23:31 | 49.55177 | 13.63265 | 34086 ft | 384 kts | 306° |
| 2026-04-25 23:31 | 49.58096 | 13.56428 | 34077 ft | 382 kts | 307° |
| 2026-04-25 23:32 | 49.61004 | 13.49618 | 34091 ft | 384 kts | 306° |
| 2026-04-25 23:32 | 49.63934 | 13.42740 | 34090 ft | 383 kts | 306° |
| 2026-04-25 23:33 | 49.66875 | 13.35807 | 34090 ft | 383 kts | 307° |
| 2026-04-25 23:33 | 49.69769 | 13.28971 | 34092 ft | 384 kts | 306° |
| 2026-04-25 23:34 | 49.72688 | 13.22062 | 34098 ft | 383 kts | 306° |
| 2026-04-25 23:34 | 49.75604 | 13.15142 | 34098 ft | 384 kts | 306° |
| 2026-04-25 23:35 | 49.78507 | 13.08228 | 34099 ft | 384 kts | 305° |
| 2026-04-25 23:35 | 49.81402 | 13.01317 | 34104 ft | 383 kts | 306° |
| 2026-04-25 23:36 | 49.84292 | 12.94415 | 34093 ft | 384 kts | 306° |
| 2026-04-25 23:36 | 49.87190 | 12.87462 | 34093 ft | 385 kts | 306° |
| 2026-04-25 23:37 | 49.90077 | 12.80522 | 34094 ft | 385 kts | 306° |
| 2026-04-25 23:37 | 49.92971 | 12.73531 | 34099 ft | 385 kts | 306° |
| 2026-04-25 23:38 | 49.95863 | 12.66537 | 34088 ft | 382 kts | 306° |
| 2026-04-25 23:38 | 49.98747 | 12.59539 | 34095 ft | 384 kts | 306° |
| 2026-04-25 23:39 | 50.01625 | 12.52547 | 34098 ft | 386 kts | 306° |
| 2026-04-25 23:39 | 50.04485 | 12.45480 | 34099 ft | 387 kts | 303° |
| 2026-04-25 23:40 | 50.06480 | 12.37682 | 34098 ft | 394 kts | 286° |
| 2026-04-25 23:40 | 50.07131 | 12.29116 | 34109 ft | 402 kts | 279° |
| 2026-04-25 23:41 | 50.07463 | 12.20464 | 34108 ft | 403 kts | 278° |
| 2026-04-25 23:41 | 50.07791 | 12.11720 | 34115 ft | 403 kts | 278° |
| 2026-04-25 23:42 | 50.08130 | 12.03095 | 34112 ft | 405 kts | 278° |
| 2026-04-25 23:42 | 50.08480 | 11.94361 | 34117 ft | 405 kts | 278° |
| 2026-04-25 23:43 | 50.08827 | 11.85603 | 34119 ft | 405 kts | 278° |
| 2026-04-25 23:43 | 50.09168 | 11.76869 | 34118 ft | 406 kts | 278° |
| 2026-04-25 23:44 | 50.09505 | 11.68110 | 34121 ft | 405 kts | 278° |
| 2026-04-25 23:44 | 50.09840 | 11.59366 | 34122 ft | 406 kts | 278° |
| 2026-04-25 23:45 | 50.10159 | 11.50669 | 34133 ft | 407 kts | 278° |
| 2026-04-25 23:45 | 50.10475 | 11.41722 | 34137 ft | 407 kts | 278° |
| 2026-04-25 23:46 | 50.10784 | 11.32913 | 34138 ft | 407 kts | 277° |
| 2026-04-25 23:46 | 50.11095 | 11.24108 | 34137 ft | 410 kts | 277° |
| 2026-04-25 23:47 | 50.11396 | 11.15223 | 34142 ft | 411 kts | 277° |
| 2026-04-25 23:47 | 50.11687 | 11.06345 | 34144 ft | 408 kts | 277° |
| 2026-04-25 23:48 | 50.11972 | 10.97511 | 34142 ft | 408 kts | 277° |
| 2026-04-25 23:48 | 50.12203 | 10.90192 | 34145 ft | 408 kts | 277° |
| 2026-04-25 23:49 | 50.12474 | 10.81401 | 34146 ft | 407 kts | 277° |
| 2026-04-25 23:49 | 50.12740 | 10.72584 | 34147 ft | 408 kts | 277° |
| 2026-04-25 23:50 | 50.13003 | 10.63743 | 34149 ft | 409 kts | 277° |
| 2026-04-25 23:50 | 50.13256 | 10.54928 | 34150 ft | 409 kts | 277° |
| 2026-04-25 23:51 | 50.13502 | 10.46098 | 34151 ft | 409 kts | 277° |
| 2026-04-25 23:51 | 50.13740 | 10.37326 | 34156 ft | 408 kts | 277° |
| 2026-04-25 23:52 | 50.14080 | 10.28542 | 34158 ft | 407 kts | 280° |
| 2026-04-25 23:52 | 50.15193 | 10.19947 | 34159 ft | 404 kts | 288° |
| 2026-04-25 23:53 | 50.16727 | 10.11628 | 34157 ft | 402 kts | 289° |
| 2026-04-25 23:53 | 50.18321 | 10.03267 | 34156 ft | 403 kts | 289° |
| 2026-04-25 23:54 | 50.19878 | 9.94899 | 34157 ft | 402 kts | 289° |
| 2026-04-25 23:54 | 50.21411 | 9.86507 | 34157 ft | 403 kts | 289° |
| 2026-04-25 23:55 | 50.22916 | 9.78171 | 34161 ft | 403 kts | 289° |
| 2026-04-25 23:55 | 50.24430 | 9.69718 | 34163 ft | 403 kts | 289° |
| 2026-04-25 23:56 | 50.25924 | 9.61341 | 34166 ft | 403 kts | 289° |
| 2026-04-25 23:56 | 50.27430 | 9.52852 | 34166 ft | 404 kts | 289° |
| 2026-04-25 23:57 | 50.28911 | 9.44458 | 34169 ft | 404 kts | 289° |
| 2026-04-25 23:57 | 50.30396 | 9.35992 | 34174 ft | 403 kts | 288° |
| 2026-04-25 23:58 | 50.31872 | 9.27556 | 34169 ft | 404 kts | 288° |
| 2026-04-25 23:58 | 50.33339 | 9.19115 | 34175 ft | 404 kts | 288° |
| 2026-04-25 23:59 | 50.34825 | 9.10667 | 34178 ft | 403 kts | 289° |
| 2026-04-25 23:59 | 50.36465 | 9.02329 | 34185 ft | 405 kts | 290° |
| 2026-04-26 00:00 | 50.38170 | 8.93918 | 34190 ft | 405 kts | 290° |
| 2026-04-26 00:00 | 50.39847 | 8.85554 | 34194 ft | 405 kts | 290° |
| 2026-04-26 00:01 | 50.41517 | 8.77126 | 34195 ft | 405 kts | 289° |
| 2026-04-26 00:01 | 50.43166 | 8.68730 | 34192 ft | 405 kts | 289° |
| 2026-04-26 00:02 | 50.44704 | 8.60275 | 34193 ft | 406 kts | 285° |
| 2026-04-26 00:02 | 50.45688 | 8.51586 | 34190 ft | 407 kts | 281° |
| 2026-04-26 00:03 | 50.46495 | 8.42836 | 34196 ft | 407 kts | 281° |
| 2026-04-26 00:03 | 50.47307 | 8.34095 | 34205 ft | 407 kts | 280° |
| 2026-04-26 00:04 | 50.48149 | 8.25285 | 34201 ft | 406 kts | 280° |
| 2026-04-26 00:04 | 50.48988 | 8.16593 | 34209 ft | 407 kts | 280° |
| 2026-04-26 00:05 | 50.49837 | 8.07777 | 34206 ft | 408 kts | 280° |
| 2026-04-26 00:05 | 50.50674 | 7.99037 | 34208 ft | 408 kts | 280° |
| 2026-04-26 00:06 | 50.51506 | 7.90287 | 34206 ft | 407 kts | 280° |
| 2026-04-26 00:06 | 50.52335 | 7.81486 | 34206 ft | 407 kts | 280° |
| 2026-04-26 00:07 | 50.53159 | 7.72673 | 34202 ft | 407 kts | 280° |
| 2026-04-26 00:07 | 50.53968 | 7.63932 | 34193 ft | 407 kts | 280° |
| 2026-04-26 00:08 | 50.54775 | 7.55142 | 34192 ft | 407 kts | 279° |
| 2026-04-26 00:08 | 50.55576 | 7.46354 | 34201 ft | 407 kts | 279° |
| 2026-04-26 00:09 | 50.56068 | 7.37544 | 34201 ft | 407 kts | 273° |
| 2026-04-26 00:09 | 50.56116 | 7.33105 | 33904 ft | 403 kts | 271° |
| 2026-04-26 00:09 | 50.56118 | 7.28763 | 33476 ft | 398 kts | 271° |
| 2026-04-26 00:09 | 50.56108 | 7.24437 | 33081 ft | 393 kts | 271° |
| 2026-04-26 00:10 | 50.56103 | 7.20232 | 32617 ft | 389 kts | 271° |
| 2026-04-26 00:10 | 50.56097 | 7.16008 | 32143 ft | 386 kts | 270° |
| 2026-04-26 00:10 | 50.56037 | 7.11783 | 31657 ft | 383 kts | 269° |
| 2026-04-26 00:10 | 50.55936 | 7.07621 | 31179 ft | 380 kts | 269° |
| 2026-04-26 00:11 | 50.55824 | 7.03528 | 30706 ft | 378 kts | 268° |
| 2026-04-26 00:11 | 50.55711 | 6.99406 | 30214 ft | 374 kts | 269° |
| 2026-04-26 00:11 | 50.55605 | 6.95381 | 29739 ft | 371 kts | 269° |
| 2026-04-26 00:11 | 50.55502 | 6.91345 | 29272 ft | 367 kts | 269° |
| 2026-04-26 00:12 | 50.55401 | 6.87357 | 28809 ft | 364 kts | 269° |
| 2026-04-26 00:12 | 50.55303 | 6.83418 | 28350 ft | 360 kts | 269° |
| 2026-04-26 00:12 | 50.55206 | 6.79516 | 27896 ft | 357 kts | 269° |
| 2026-04-26 00:12 | 50.55110 | 6.75706 | 27451 ft | 353 kts | 269° |
| 2026-04-26 00:13 | 50.55040 | 6.71855 | 26997 ft | 350 kts | 271° |
| 2026-04-26 00:13 | 50.55130 | 6.68071 | 26554 ft | 345 kts | 277° |
| 2026-04-26 00:13 | 50.55441 | 6.64384 | 26120 ft | 342 kts | 281° |
| 2026-04-26 00:13 | 50.55869 | 6.60697 | 25675 ft | 338 kts | 282° |
| 2026-04-26 00:14 | 50.56326 | 6.57109 | 25247 ft | 335 kts | 283° |
| 2026-04-26 00:14 | 50.56785 | 6.53546 | 24824 ft | 332 kts | 282° |
| 2026-04-26 00:14 | 50.57229 | 6.50041 | 24408 ft | 330 kts | 282° |
| 2026-04-26 00:14 | 50.57669 | 6.46500 | 23985 ft | 327 kts | 282° |
| 2026-04-26 00:15 | 50.58091 | 6.43053 | 23569 ft | 325 kts | 282° |
| 2026-04-26 00:15 | 50.58511 | 6.39582 | 23157 ft | 323 kts | 282° |
| 2026-04-26 00:15 | 50.58924 | 6.36133 | 22744 ft | 321 kts | 282° |
| 2026-04-26 00:15 | 50.59334 | 6.32707 | 22331 ft | 319 kts | 281° |
| 2026-04-26 00:16 | 50.59739 | 6.29306 | 21920 ft | 317 kts | 281° |
| 2026-04-26 00:16 | 50.60144 | 6.25890 | 21506 ft | 315 kts | 281° |
| 2026-04-26 00:16 | 50.60538 | 6.22554 | 21102 ft | 313 kts | 281° |
| 2026-04-26 00:16 | 50.60934 | 6.19192 | 20699 ft | 312 kts | 281° |
| 2026-04-26 00:17 | 50.61327 | 6.15857 | 20291 ft | 310 kts | 281° |
| 2026-04-26 00:17 | 50.61711 | 6.12573 | 19892 ft | 309 kts | 281° |
| 2026-04-26 00:17 | 50.62102 | 6.09235 | 19482 ft | 307 kts | 281° |
| 2026-04-26 00:17 | 50.62484 | 6.05955 | 19070 ft | 306 kts | 281° |
| 2026-04-26 00:18 | 50.62865 | 6.02683 | 18682 ft | 304 kts | 281° |
| 2026-04-26 00:18 | 50.63241 | 5.99438 | 18288 ft | 302 kts | 282° |
| 2026-04-26 00:18 | 50.63612 | 5.96229 | 17871 ft | 300 kts | 282° |
| 2026-04-26 00:18 | 50.63979 | 5.93050 | 17511 ft | 291 kts | 282° |
| 2026-04-26 00:19 | 50.64337 | 5.89935 | 17134 ft | 285 kts | 282° |
| 2026-04-26 00:19 | 50.64710 | 5.86911 | 16776 ft | 283 kts | 284° |
| 2026-04-26 00:19 | 50.65257 | 5.83936 | 16396 ft | 281 kts | 292° |
| 2026-04-26 00:19 | 50.66022 | 5.81169 | 16020 ft | 273 kts | 297° |
| 2026-04-26 00:20 | 50.66871 | 5.78570 | 15683 ft | 265 kts | 299° |
| 2026-04-26 00:20 | 50.67728 | 5.76041 | 15343 ft | 258 kts | 299° |
| 2026-04-26 00:20 | 50.68549 | 5.73582 | 14999 ft | 253 kts | 298° |
| 2026-04-26 00:20 | 50.69342 | 5.71153 | 14684 ft | 249 kts | 298° |
| 2026-04-26 00:21 | 50.70126 | 5.68722 | 14359 ft | 250 kts | 298° |
| 2026-04-26 00:21 | 50.70905 | 5.66293 | 14019 ft | 250 kts | 298° |
| 2026-04-26 00:21 | 50.71686 | 5.63851 | 13706 ft | 247 kts | 298° |
| 2026-04-26 00:21 | 50.72448 | 5.61470 | 13362 ft | 245 kts | 298° |
| 2026-04-26 00:22 | 50.73221 | 5.59055 | 13036 ft | 243 kts | 298° |
| 2026-04-26 00:22 | 50.73975 | 5.56696 | 12712 ft | 242 kts | 298° |
| 2026-04-26 00:22 | 50.74730 | 5.54333 | 12397 ft | 241 kts | 298° |
| 2026-04-26 00:22 | 50.75478 | 5.51989 | 12074 ft | 240 kts | 298° |
| 2026-04-26 00:23 | 50.76230 | 5.49628 | 11753 ft | 238 kts | 298° |
| 2026-04-26 00:23 | 50.76963 | 5.47327 | 11449 ft | 237 kts | 299° |
| 2026-04-26 00:23 | 50.77707 | 5.44989 | 11119 ft | 237 kts | 298° |
| 2026-04-26 00:23 | 50.78442 | 5.42676 | 10798 ft | 235 kts | 299° |
| 2026-04-26 00:24 | 50.79171 | 5.40380 | 10480 ft | 233 kts | 299° |
| 2026-04-26 00:24 | 50.79886 | 5.38124 | 10284 ft | 231 kts | 299° |
| 2026-04-26 00:24 | 50.80609 | 5.35842 | 10149 ft | 231 kts | 299° |
| 2026-04-26 00:24 | 50.81335 | 5.33556 | 9863 ft | 237 kts | 298° |
| 2026-04-26 00:25 | 50.82074 | 5.31220 | 9503 ft | 233 kts | 298° |
| 2026-04-26 00:25 | 50.82782 | 5.28974 | 9221 ft | 227 kts | 298° |
| 2026-04-26 00:25 | 50.83470 | 5.26791 | 8933 ft | 218 kts | 298° |
| 2026-04-26 00:25 | 50.84141 | 5.24661 | 8670 ft | 210 kts | 299° |
| 2026-04-26 00:26 | 50.84780 | 5.22634 | 8391 ft | 204 kts | 299° |
| 2026-04-26 00:26 | 50.85396 | 5.20679 | 8131 ft | 197 kts | 299° |
| 2026-04-26 00:26 | 50.86003 | 5.18752 | 7891 ft | 193 kts | 299° |
| 2026-04-26 00:26 | 50.86600 | 5.16857 | 7673 ft | 192 kts | 299° |
| 2026-04-26 00:27 | 50.87194 | 5.14967 | 7412 ft | 194 kts | 300° |
| 2026-04-26 00:27 | 50.87779 | 5.13036 | 7217 ft | 190 kts | 297° |
| 2026-04-26 00:27 | 50.88267 | 5.11143 | 6886 ft | 189 kts | 295° |
| 2026-04-26 00:27 | 50.88728 | 5.09184 | 6478 ft | 189 kts | 294° |
| 2026-04-26 00:28 | 50.89185 | 5.07267 | 6239 ft | 189 kts | 295° |
| 2026-04-26 00:28 | 50.89660 | 5.05320 | 6003 ft | 191 kts | 295° |
| 2026-04-26 00:28 | 50.90140 | 5.03359 | 5758 ft | 191 kts | 295° |
| 2026-04-26 00:28 | 50.90619 | 5.01391 | 5501 ft | 189 kts | 295° |
| 2026-04-26 00:29 | 50.91090 | 4.99458 | 5260 ft | 189 kts | 295° |
| 2026-04-26 00:29 | 50.91559 | 4.97530 | 5053 ft | 183 kts | 295° |
| 2026-04-26 00:29 | 50.92006 | 4.95685 | 4790 ft | 178 kts | 295° |
| 2026-04-26 00:29 | 50.92440 | 4.93902 | 4568 ft | 171 kts | 295° |
| 2026-04-26 00:30 | 50.92856 | 4.92188 | 4434 ft | 163 kts | 295° |
| 2026-04-26 00:30 | 50.93264 | 4.90506 | 4361 ft | 165 kts | 295° |
| 2026-04-26 00:30 | 50.93686 | 4.88774 | 4261 ft | 167 kts | 295° |
| 2026-04-26 00:30 | 50.94097 | 4.87079 | 4253 ft | 165 kts | 295° |
| 2026-04-26 00:31 | 50.94511 | 4.85365 | 4256 ft | 166 kts | 295° |
| 2026-04-26 00:31 | 50.94923 | 4.83667 | 4251 ft | 166 kts | 295° |
| 2026-04-26 00:31 | 50.95334 | 4.81958 | 4252 ft | 166 kts | 293° |
| 2026-04-26 00:31 | 50.95441 | 4.80141 | 4341 ft | 172 kts | 271° |
| 2026-04-26 00:32 | 50.95385 | 4.78144 | 3947 ft | 190 kts | 269° |
| 2026-04-26 00:32 | 50.95168 | 4.76051 | 3473 ft | 190 kts | 259° |
| 2026-04-26 00:32 | 50.94428 | 4.72295 | 2878 ft | 167 kts | 254° |
| 2026-04-26 00:33 | 50.94053 | 4.70580 | 2657 ft | 163 kts | 254° |
| 2026-04-26 00:33 | 50.93682 | 4.68915 | 2482 ft | 159 kts | 253° |
| 2026-04-26 00:33 | 50.93301 | 4.67220 | 2203 ft | 163 kts | 253° |
| 2026-04-26 00:33 | 50.92924 | 4.65563 | 1969 ft | 158 kts | 253° |
| 2026-04-26 00:34 | 50.92551 | 4.63928 | 1756 ft | 160 kts | 253° |
| 2026-04-26 00:34 | 50.92171 | 4.62268 | 1523 ft | 159 kts | 252° |
| 2026-04-26 00:34 | 50.91795 | 4.60632 | 1305 ft | 157 kts | 252° |
| 2026-04-26 00:34 | 50.91425 | 4.59009 | 1086 ft | 155 kts | 252° |
| 2026-04-26 00:35 | 50.91059 | 4.57413 | 877 ft | 154 kts | 252° |
| 2026-04-26 00:35 | 50.90696 | 4.55833 | 666 ft | 151 kts | 252° |
| 2026-04-26 00:35 | 50.90344 | 4.54299 | 471 ft | 147 kts | 252° |
| 2026-04-26 00:35 | 50.89997 | 4.52790 | 243 ft | 146 kts | 252° |
| 2026-04-26 00:36 | 50.89654 | 4.51304 | 154 ft | 133 kts | 251° |
| 2026-04-26 00:36 | 50.89445 | 4.50373 | 156 ft | 43 kts | 250° |
| 2026-04-26 00:36 | 50.89360 | 4.50004 | 156 ft | 27 kts | 250° |
| 2026-04-26 00:36 | 50.89343 | 4.49779 | 157 ft | 19 kts | 283° |
| 2026-04-26 00:37 | 50.89406 | 4.49594 | 154 ft | 16 kts | 306° |
| 2026-04-26 00:37 | 50.89412 | 4.49581 | 154 ft | 0 kts | 307° |
| 2026-04-26 00:37 | 50.89420 | 4.49563 | 153 ft | 4 kts | 307° |
| 2026-04-26 00:38 | 50.89455 | 4.49490 | 152 ft | 11 kts | 307° |
| 2026-04-26 00:38 | 50.89507 | 4.49381 | 153 ft | 13 kts | 308° |
| 2026-04-26 00:38 | 50.89568 | 4.49255 | 155 ft | 15 kts | 308° |
| 2026-04-26 00:38 | 50.89611 | 4.49135 | 156 ft | 10 kts | 293° |
| 2026-04-26 00:39 | 50.89657 | 4.49048 | 157 ft | 8 kts | 326° |
| 2026-04-26 00:39 | 50.89666 | 4.49039 | 157 ft | 2 kts | 331° |
| 2026-04-26 00:39 | 50.89668 | 4.49038 | 157 ft | 0 kts | 332° |